GOO weather

Goondiwindi Airport
Queensland, Australia

Public forecast

Using degrees Celsius for public forecast. Weather courtesy of forecast.io.

METAR (pilot weather report)

Closest report is Moree Airport, 63.8 nm (118.1 km) SSW. Retrieved 2019/09/23 17:00 UTC (2 hours ago):

YMOR 231700Z AUTO 15004KT 9999 // NCD 09/M05 Q1024

TAF (pilot weather forecast)

Forecast is more than 12 hours old.

Closest forecast is RAAF Base Amberley, 137.3 nm (254.3 km) ENE. Retrieved 2019/09/23 06:00 UTC (13 hours ago):

TAF YAMB 230529Z 2306/2324 26014KT CAVOK FM231200 22005KT CAVOK FM231600 19003KT 9999 MIFG SCT020 FM232200 VRB05KT 9999 SCT030 PROB30 2316/2322 0500 FG NSC